createdAt,value
2017-08-22T00:01:21.497Z,14.61
2017-08-22T00:03:51.370Z,14.47
2017-08-22T00:06:20.880Z,14.52
2017-08-22T00:08:50.376Z,14.49
2017-08-22T00:11:19.941Z,14.48
2017-08-22T00:13:49.400Z,14.43
2017-08-22T00:16:28.668Z,14.41
2017-08-22T00:19:03.144Z,14.39
2017-08-22T00:21:34.083Z,14.34
2017-08-22T00:24:03.512Z,14.24
2017-08-22T00:26:33.032Z,14.23
2017-08-22T00:29:07.865Z,14.18
2017-08-22T00:31:40.187Z,14.21
2017-08-22T00:34:09.670Z,14.16
2017-08-22T00:36:39.294Z,14.18
2017-08-22T00:39:08.762Z,14.26
2017-08-22T00:41:38.168Z,14.19
2017-08-22T00:44:08.082Z,14.07
2017-08-22T00:46:38.626Z,14.07
2017-08-22T00:49:08.076Z,13.99
2017-08-22T00:51:37.646Z,14.00
2017-08-22T00:54:07.216Z,13.96
2017-08-22T00:56:36.643Z,13.98
2017-08-22T00:59:06.023Z,13.92
2017-08-22T01:01:35.649Z,13.98
2017-08-22T01:04:10.377Z,14.03
2017-08-22T01:06:46.743Z,13.91
2017-08-22T01:09:16.272Z,13.91
2017-08-22T01:11:45.759Z,13.94
2017-08-22T01:14:15.243Z,13.95
2017-08-22T01:16:48.691Z,13.87
2017-08-22T01:19:19.491Z,13.66
2017-08-22T01:21:49.133Z,13.78
2017-08-22T01:24:19.660Z,13.69
2017-08-22T01:26:53.445Z,13.77
2017-08-22T01:29:23.219Z,13.83
2017-08-22T01:31:52.743Z,13.77
2017-08-22T01:34:27.550Z,13.67
2017-08-22T01:37:04.937Z,13.65
2017-08-22T01:39:35.103Z,13.61
2017-08-22T01:42:04.836Z,13.71
2017-08-22T01:44:36.409Z,13.63
2017-08-22T01:47:06.008Z,13.62
2017-08-22T01:49:35.549Z,13.65
2017-08-22T01:52:05.055Z,13.58
2017-08-22T01:54:34.717Z,13.57
2017-08-22T01:57:05.069Z,13.60
2017-08-22T01:59:34.696Z,13.64
2017-08-22T02:02:04.309Z,13.65
2017-08-22T02:04:35.946Z,13.54
2017-08-22T02:07:06.816Z,13.57
2017-08-22T02:09:36.351Z,13.50
2017-08-22T02:12:06.074Z,13.57
2017-08-22T02:14:35.732Z,13.54
2017-08-22T02:17:07.549Z,13.55
2017-08-22T02:19:37.078Z,13.57
2017-08-22T02:22:16.834Z,13.64
2017-08-22T02:24:49.139Z,13.57
2017-08-22T02:27:19.031Z,13.58
2017-08-22T02:29:58.086Z,13.48
2017-08-22T02:32:32.048Z,13.56
2017-08-22T02:35:01.880Z,13.43
2017-08-22T02:37:32.989Z,13.40
2017-08-22T02:40:02.543Z,13.45
2017-08-22T02:42:32.146Z,13.27
2017-08-22T02:45:07.014Z,13.11
2017-08-22T02:47:49.191Z,13.24
2017-08-22T02:50:23.888Z,13.31
2017-08-22T02:52:53.513Z,13.29
2017-08-22T02:55:23.108Z,13.20
2017-08-22T02:57:52.611Z,13.17
2017-08-22T03:00:35.003Z,13.23
2017-08-22T03:03:08.931Z,13.13
2017-08-22T03:05:39.559Z,13.30
2017-08-22T03:08:09.172Z,13.24
2017-08-22T03:10:40.076Z,13.21
2017-08-22T03:13:09.985Z,13.19
2017-08-22T03:15:45.625Z,13.28
2017-08-22T03:18:21.417Z,13.26
2017-08-22T03:20:53.164Z,13.31
2017-08-22T03:23:22.654Z,13.29
2017-08-22T03:25:52.200Z,13.32
2017-08-22T03:28:21.767Z,13.31
2017-08-22T03:31:06.276Z,13.31
2017-08-22T03:33:44.716Z,13.31
2017-08-22T03:36:15.716Z,13.22
2017-08-22T03:38:45.209Z,13.28
2017-08-22T03:41:14.954Z,13.35
2017-08-22T03:43:44.348Z,13.28
2017-08-22T03:46:25.834Z,13.20
2017-08-22T03:49:04.896Z,13.22
2017-08-22T03:51:36.357Z,13.19
2017-08-22T03:54:05.982Z,13.30
2017-08-22T03:56:35.673Z,13.30
2017-08-22T03:59:05.800Z,13.31
2017-08-22T04:01:35.528Z,13.33
2017-08-22T04:04:05.289Z,13.39
2017-08-22T04:06:34.816Z,13.29
2017-08-22T04:09:09.799Z,13.37
2017-08-22T04:11:42.808Z,13.36
2017-08-22T04:14:12.477Z,13.36
2017-08-22T04:16:42.001Z,13.45
2017-08-22T04:19:11.546Z,13.51
2017-08-22T04:21:41.051Z,13.43
2017-08-22T04:24:16.054Z,13.41
2017-08-22T04:26:46.424Z,13.48
2017-08-22T04:29:18.769Z,13.46
2017-08-22T04:31:49.500Z,13.37
2017-08-22T04:34:19.450Z,13.40
2017-08-22T04:36:48.956Z,13.53
2017-08-22T04:39:18.350Z,13.47
2017-08-22T04:41:48.713Z,13.50
2017-08-22T04:44:18.080Z,13.47
2017-08-22T04:46:47.564Z,13.42
2017-08-22T04:49:16.956Z,13.58
2017-08-22T04:52:26.691Z,13.60
2017-08-22T04:55:02.309Z,13.66
2017-08-22T04:57:34.379Z,13.58
2017-08-22T05:00:04.783Z,13.65
2017-08-22T05:02:34.697Z,13.59
2017-08-22T05:05:04.395Z,13.62
2017-08-22T05:07:52.596Z,13.63
2017-08-22T05:10:29.045Z,13.63
2017-08-22T05:13:00.712Z,13.62
2017-08-22T05:15:30.919Z,13.73
2017-08-22T05:18:00.389Z,13.78
2017-08-22T05:20:29.837Z,13.84
2017-08-22T05:22:59.724Z,13.88
2017-08-22T05:25:29.485Z,13.90
2017-08-22T05:27:59.095Z,13.95
2017-08-22T05:30:29.612Z,14.08
2017-08-22T05:32:59.260Z,14.13
2017-08-22T05:35:28.705Z,14.08
2017-08-22T05:37:57.997Z,14.10
2017-08-22T05:40:27.372Z,14.23
2017-08-22T05:42:56.745Z,14.11
2017-08-22T05:45:26.106Z,14.08
2017-08-22T05:47:55.423Z,14.29
2017-08-22T05:50:24.893Z,14.36
2017-08-22T05:52:54.683Z,14.44
2017-08-22T05:55:24.049Z,14.47
2017-08-22T05:57:53.781Z,14.56
2017-08-22T06:00:23.168Z,14.70
2017-08-22T06:02:52.487Z,14.80
2017-08-22T06:05:21.985Z,14.86
2017-08-22T06:07:51.285Z,15.03
2017-08-22T06:10:20.660Z,15.48
2017-08-22T06:12:50.057Z,16.05
2017-08-22T06:15:19.436Z,16.53
2017-08-22T06:17:51.568Z,15.67
2017-08-22T06:20:21.037Z,16.68
2017-08-22T06:22:50.443Z,16.43
2017-08-22T06:25:19.881Z,16.76
2017-08-22T06:27:49.237Z,16.88
2017-08-22T06:30:18.661Z,17.00
2017-08-22T06:32:47.990Z,17.14
2017-08-22T06:35:17.409Z,17.36
2017-08-22T06:37:47.301Z,17.34
2017-08-22T06:40:16.889Z,17.55
2017-08-22T06:42:46.248Z,17.34
2017-08-22T06:45:15.731Z,17.12
2017-08-22T06:47:45.127Z,17.29
2017-08-22T06:50:14.494Z,17.51
2017-08-22T06:52:43.850Z,17.43
2017-08-22T06:55:13.203Z,17.34
2017-08-22T06:57:42.543Z,17.15
2017-08-22T07:00:14.158Z,16.98
2017-08-22T07:02:43.672Z,17.08
2017-08-22T07:05:13.208Z,16.46
2017-08-22T07:07:42.537Z,16.68
2017-08-22T07:10:11.982Z,16.76
2017-08-22T07:12:42.125Z,16.78
2017-08-22T07:15:11.542Z,16.64
2017-08-22T07:17:40.943Z,16.71
2017-08-22T07:20:13.014Z,16.61
2017-08-22T07:22:42.567Z,16.46
2017-08-22T07:27:49.252Z,16.62
2017-08-22T07:30:18.792Z,16.53
2017-08-22T07:32:49.056Z,16.44
2017-08-22T07:35:19.381Z,16.55
2017-08-22T07:37:48.765Z,16.50
2017-08-22T07:40:18.229Z,16.53
2017-08-22T07:42:47.603Z,16.63
2017-08-22T07:45:17.718Z,16.85
2017-08-22T07:47:47.957Z,16.67
2017-08-22T07:50:18.669Z,16.96
2017-08-22T07:52:50.698Z,16.75
2017-08-22T07:55:20.338Z,16.83
2017-08-22T07:57:49.704Z,16.75
2017-08-22T08:00:20.907Z,16.54
2017-08-22T08:02:50.817Z,16.46
2017-08-22T08:05:20.173Z,16.42
2017-08-22T08:07:49.576Z,16.33
2017-08-22T08:10:18.960Z,16.41
2017-08-22T08:12:48.751Z,16.26
2017-08-22T08:15:18.559Z,16.24
2017-08-22T08:17:48.504Z,16.14
2017-08-22T08:20:17.896Z,15.94
2017-08-22T08:22:47.728Z,16.10
2017-08-22T08:26:31.952Z,16.04
2017-08-22T08:29:02.297Z,16.18
2017-08-22T08:31:31.858Z,16.03
2017-08-22T08:34:01.449Z,16.14
2017-08-22T08:36:30.824Z,16.17
2017-08-22T08:39:00.419Z,16.18
2017-08-22T08:41:29.776Z,16.09
2017-08-22T08:44:00.246Z,16.03
2017-08-22T08:46:30.145Z,16.16
2017-08-22T08:48:59.502Z,16.34
2017-08-22T08:51:29.042Z,16.17
2017-08-22T08:53:58.594Z,16.30
2017-08-22T08:56:28.365Z,16.51
2017-08-22T08:58:58.339Z,16.55
2017-08-22T09:01:27.997Z,16.69
2017-08-22T09:03:57.387Z,16.67
2017-08-22T09:06:26.838Z,16.46
2017-08-22T09:08:57.124Z,16.43
2017-08-22T09:11:26.647Z,16.46
2017-08-22T09:13:56.908Z,16.59
2017-08-22T09:16:26.524Z,16.57
2017-08-22T09:18:55.942Z,16.62
2017-08-22T09:21:25.552Z,16.72
2017-08-22T09:23:54.922Z,16.83
2017-08-22T09:26:24.516Z,16.98
2017-08-22T09:28:53.950Z,17.01
2017-08-22T09:31:23.402Z,17.02
2017-08-22T09:33:52.883Z,17.23
2017-08-22T09:36:22.326Z,17.41
2017-08-22T09:38:52.796Z,17.34
2017-08-22T09:41:22.757Z,17.08
2017-08-22T09:43:52.579Z,17.31
2017-08-22T09:46:22.063Z,17.71
2017-08-22T09:48:51.486Z,17.54
2017-08-22T09:51:20.864Z,17.64
2017-08-22T09:53:50.188Z,17.77
2017-08-22T09:56:19.648Z,17.74
2017-08-22T09:58:48.947Z,17.66
2017-08-22T10:01:18.364Z,17.60
2017-08-22T10:03:47.700Z,17.75
2017-08-22T10:06:17.202Z,17.76
2017-08-22T10:08:47.072Z,17.69
2017-08-22T10:11:16.441Z,17.68
2017-08-22T10:13:47.298Z,17.53
2017-08-22T10:16:21.957Z,17.58
2017-08-22T10:18:53.244Z,17.71
2017-08-22T10:21:23.134Z,17.66
2017-08-22T10:23:53.006Z,17.92
2017-08-22T10:26:22.557Z,17.70
2017-08-22T10:28:51.903Z,17.77
2017-08-22T10:31:21.280Z,17.86
2017-08-22T10:33:51.396Z,17.84
2017-08-22T10:36:20.809Z,17.65
2017-08-22T10:38:50.168Z,17.43
2017-08-22T10:41:19.592Z,19.82
2017-08-22T10:43:48.989Z,18.93
2017-08-22T10:46:18.434Z,19.53
2017-08-22T10:48:47.839Z,21.56
2017-08-22T10:51:17.240Z,21.03
2017-08-22T10:53:46.553Z,22.07
2017-08-22T10:56:15.936Z,22.04
2017-08-22T10:58:45.316Z,22.62
2017-08-22T11:01:14.778Z,21.03
2017-08-22T11:03:44.198Z,20.64
2017-08-22T11:06:13.583Z,19.92
2017-08-22T11:08:42.939Z,19.63
2017-08-22T11:11:12.617Z,19.18
2017-08-22T11:13:42.185Z,19.11
2017-08-22T11:16:14.070Z,19.00
2017-08-22T11:18:43.767Z,18.56
2017-08-22T11:21:13.757Z,18.39
2017-08-22T11:23:43.091Z,18.14
2017-08-22T11:26:12.509Z,18.17
2017-08-22T11:28:41.849Z,18.12
2017-08-22T11:31:12.187Z,18.19
2017-08-22T11:33:41.715Z,18.08
2017-08-22T11:36:11.176Z,17.93
2017-08-22T11:38:40.609Z,17.75
2017-08-22T11:41:10.026Z,17.83
2017-08-22T11:43:39.694Z,17.70
2017-08-22T11:46:09.181Z,17.47
2017-08-22T11:48:38.615Z,17.43
2017-08-22T11:51:08.021Z,17.44
2017-08-22T11:53:37.424Z,17.42
2017-08-22T11:56:06.749Z,17.43
2017-08-22T11:58:36.152Z,17.41
2017-08-22T12:01:06.012Z,17.51
2017-08-22T12:03:35.468Z,17.55
2017-08-22T12:06:04.858Z,17.58
2017-08-22T12:08:34.278Z,17.56
2017-08-22T12:11:04.075Z,17.61
2017-08-22T12:13:33.455Z,17.71
2017-08-22T12:16:03.551Z,17.69
2017-08-22T12:18:33.413Z,17.64
2017-08-22T12:21:02.921Z,17.57
2017-08-22T12:23:32.302Z,17.64
2017-08-22T12:26:01.966Z,17.62
2017-08-22T12:28:31.361Z,17.67
2017-08-22T12:31:00.806Z,17.81
2017-08-22T12:33:30.742Z,17.80
2017-08-22T12:36:00.255Z,17.63
2017-08-22T12:38:29.708Z,17.77
2017-08-22T12:40:59.108Z,17.85
2017-08-22T12:43:30.709Z,17.82
2017-08-22T12:46:01.736Z,18.01
2017-08-22T12:48:31.123Z,18.04
2017-08-22T12:51:00.732Z,18.06
2017-08-22T12:53:30.106Z,18.19
2017-08-22T12:56:00.090Z,18.08
2017-08-22T12:58:30.253Z,17.98
2017-08-22T13:00:59.926Z,17.93
2017-08-22T13:03:29.372Z,17.88
2017-08-22T13:05:58.943Z,17.97
2017-08-22T13:08:28.717Z,17.91
2017-08-22T13:10:58.322Z,17.79
2017-08-22T13:13:27.652Z,17.70
2017-08-22T13:15:57.296Z,17.70
2017-08-22T13:18:26.715Z,17.69
2017-08-22T13:20:56.368Z,17.77
2017-08-22T13:23:26.980Z,17.78
2017-08-22T13:25:56.713Z,17.76
2017-08-22T13:28:28.885Z,17.83
2017-08-22T13:30:58.465Z,17.81
2017-08-22T13:33:28.935Z,17.76
2017-08-22T13:35:58.821Z,17.88
2017-08-22T13:38:28.788Z,18.07
2017-08-22T13:40:58.237Z,17.97
2017-08-22T13:43:27.593Z,18.21
2017-08-22T13:45:57.007Z,18.37
2017-08-22T13:48:26.935Z,18.31
2017-08-22T13:50:59.000Z,18.23
2017-08-22T13:53:29.588Z,18.27
2017-08-22T13:55:59.999Z,18.39
2017-08-22T13:58:34.212Z,18.51
2017-08-22T14:01:04.181Z,18.49
2017-08-22T14:03:36.354Z,18.35
2017-08-22T14:06:07.593Z,18.36
2017-08-22T14:08:58.032Z,18.27
2017-08-22T14:11:30.568Z,18.33
2017-08-22T14:14:00.198Z,18.27
2017-08-22T14:16:29.870Z,18.18
2017-08-22T14:18:59.266Z,18.07
2017-08-22T14:21:28.753Z,18.03
2017-08-22T14:23:58.164Z,17.99
2017-08-22T14:26:28.510Z,18.02
2017-08-22T14:28:58.268Z,18.09
2017-08-22T14:31:28.236Z,18.08
2017-08-22T14:33:57.953Z,18.17
2017-08-22T14:36:30.460Z,18.23
2017-08-22T14:39:00.342Z,18.23
2017-08-22T14:41:29.901Z,18.11
2017-08-22T14:43:59.427Z,18.01
2017-08-22T14:46:28.849Z,18.03
2017-08-22T14:49:04.830Z,17.98
2017-08-22T14:51:36.235Z,18.14
2017-08-22T14:54:08.438Z,18.19
2017-08-22T14:56:38.050Z,18.30
2017-08-22T14:59:07.470Z,18.34
2017-08-22T15:01:36.961Z,18.40
2017-08-22T15:04:07.299Z,18.42
2017-08-22T15:06:36.794Z,18.54
2017-08-22T15:09:06.229Z,18.42
2017-08-22T15:11:37.388Z,18.34
2017-08-22T15:14:14.412Z,18.39
2017-08-22T15:16:44.025Z,18.33
2017-08-22T15:19:13.440Z,18.23
2017-08-22T15:21:43.250Z,18.18
2017-08-22T15:24:14.096Z,18.12
2017-08-22T15:26:45.793Z,18.24
2017-08-22T15:29:16.891Z,18.12
2017-08-22T15:31:48.716Z,18.23
2017-08-22T15:34:22.664Z,18.16
2017-08-22T15:36:53.084Z,18.14
2017-08-22T15:39:25.251Z,18.19
2017-08-22T15:41:58.377Z,18.23
2017-08-22T15:44:29.105Z,18.11
2017-08-22T15:46:58.758Z,18.05
2017-08-22T15:49:32.668Z,18.03
2017-08-22T15:52:02.123Z,18.02
2017-08-22T15:54:31.534Z,18.03
2017-08-22T15:57:00.958Z,18.04
2017-08-22T15:59:30.283Z,18.01
2017-08-22T16:02:01.673Z,17.93
2017-08-22T16:04:32.688Z,17.91
2017-08-22T16:07:04.331Z,17.86
2017-08-22T16:09:33.848Z,17.87
2017-08-22T16:12:04.800Z,17.77
2017-08-22T16:14:34.243Z,17.82
2017-08-22T16:17:03.817Z,17.81
2017-08-22T16:19:33.422Z,17.85
2017-08-22T16:22:02.814Z,17.90
2017-08-22T16:24:34.256Z,17.93
2017-08-22T16:27:03.759Z,17.94
2017-08-22T16:29:33.958Z,17.94
2017-08-22T16:34:47.365Z,17.88
2017-08-22T16:37:17.176Z,17.89
2017-08-22T16:39:46.564Z,17.83
2017-08-22T16:42:15.987Z,17.82
2017-08-22T16:44:45.462Z,17.84
2017-08-22T16:47:14.851Z,17.83
2017-08-22T16:49:45.289Z,17.78
2017-08-22T16:52:16.563Z,17.75
2017-08-22T16:54:47.376Z,17.80
2017-08-22T16:57:17.221Z,17.77
2017-08-22T16:59:47.290Z,17.75
2017-08-22T17:02:16.712Z,17.71
2017-08-22T17:04:47.198Z,17.76
2017-08-22T17:07:18.174Z,17.73
2017-08-22T17:09:47.505Z,17.67
2017-08-22T17:12:17.014Z,17.66
2017-08-22T17:14:46.526Z,17.68
2017-08-22T17:17:16.065Z,17.65
2017-08-22T17:19:47.366Z,17.67
2017-08-22T17:22:17.908Z,17.60
2017-08-22T17:24:47.293Z,17.65
2017-08-22T17:27:16.807Z,17.60
2017-08-22T17:29:46.451Z,17.55
2017-08-22T17:32:15.908Z,17.53
2017-08-22T17:34:45.275Z,17.53
2017-08-22T17:37:14.709Z,17.51
2017-08-22T17:39:44.503Z,17.46
2017-08-22T17:42:14.041Z,17.46
2017-08-22T17:44:43.499Z,17.42
2017-08-22T17:47:15.146Z,17.33
2017-08-22T17:49:44.468Z,17.37
2017-08-22T17:52:13.970Z,17.23
2017-08-22T17:54:43.415Z,17.23
2017-08-22T17:57:12.795Z,17.15
2017-08-22T17:59:42.290Z,17.13
2017-08-22T18:02:19.720Z,17.19
2017-08-22T18:07:58.505Z,17.00
2017-08-22T18:10:28.093Z,16.89
2017-08-22T18:12:57.462Z,16.96
2017-08-22T18:15:27.231Z,16.95
2017-08-22T18:17:56.813Z,16.68
2017-08-22T18:20:27.300Z,16.72
2017-08-22T18:22:57.222Z,16.57
2017-08-22T18:25:26.899Z,16.73
2017-08-22T18:27:56.900Z,16.62
2017-08-22T18:30:41.239Z,16.68
2017-08-22T18:33:13.151Z,16.63
2017-08-22T18:35:45.790Z,16.60
2017-08-22T18:38:16.664Z,16.48
2017-08-22T18:40:46.278Z,16.42
2017-08-22T18:43:40.598Z,16.37
2017-08-22T18:46:10.040Z,16.24
2017-08-22T18:48:39.462Z,16.14
2017-08-22T18:51:08.957Z,16.27
2017-08-22T18:53:38.315Z,16.29
2017-08-22T18:56:07.732Z,16.24
2017-08-22T18:58:37.849Z,16.24
2017-08-22T19:01:07.274Z,16.19
2017-08-22T19:03:36.625Z,16.10
2017-08-22T19:06:06.046Z,16.07
2017-08-22T19:08:35.476Z,16.07
2017-08-22T19:11:04.895Z,16.00
2017-08-22T19:13:34.967Z,15.97
2017-08-22T19:16:04.435Z,15.94
2017-08-22T19:18:33.785Z,15.88
2017-08-22T19:21:03.132Z,15.78
2017-08-22T19:23:32.504Z,15.75
2017-08-22T19:26:01.987Z,15.64
2017-08-22T19:28:31.381Z,15.59
2017-08-22T19:31:01.036Z,15.49
2017-08-22T19:33:30.341Z,15.41
2017-08-22T19:35:59.767Z,15.46
2017-08-22T19:38:29.178Z,15.36
2017-08-22T19:40:58.591Z,15.24
2017-08-22T19:43:28.108Z,15.19
2017-08-22T19:45:57.628Z,15.14
2017-08-22T19:48:27.060Z,15.12
2017-08-22T19:50:57.143Z,15.09
2017-08-22T19:53:26.824Z,15.06
2017-08-22T19:55:57.048Z,14.93
2017-08-22T19:58:27.000Z,14.94
2017-08-22T20:00:56.459Z,14.91
2017-08-22T20:03:28.520Z,14.87
2017-08-22T20:05:58.001Z,14.87
2017-08-22T20:08:27.356Z,14.91
2017-08-22T20:10:56.915Z,14.89
2017-08-22T20:13:26.783Z,14.85
2017-08-22T20:15:56.302Z,14.76
2017-08-22T20:18:25.693Z,14.70
2017-08-22T20:20:55.298Z,14.63
2017-08-22T20:23:28.772Z,14.55
2017-08-22T20:25:58.376Z,14.52
2017-08-22T20:28:28.172Z,14.43
2017-08-22T20:30:57.981Z,14.35
2017-08-22T20:33:27.519Z,14.41
2017-08-22T20:35:57.606Z,14.44
2017-08-22T20:38:27.068Z,14.36
2017-08-22T20:40:56.662Z,14.35
2017-08-22T20:43:26.314Z,14.25
2017-08-22T20:45:55.765Z,14.22
2017-08-22T20:48:25.333Z,14.20
2017-08-22T20:50:54.862Z,14.14
2017-08-22T20:53:24.365Z,14.09
2017-08-22T20:55:54.850Z,14.08
2017-08-22T20:58:24.395Z,14.06
2017-08-22T21:00:54.889Z,14.04
2017-08-22T21:03:24.995Z,13.98
2017-08-22T21:05:54.963Z,13.95
2017-08-22T21:08:24.376Z,13.94
2017-08-22T21:10:54.144Z,13.88
2017-08-22T21:13:23.486Z,13.84
2017-08-22T21:15:53.293Z,13.82
2017-08-22T21:18:24.162Z,13.80
2017-08-22T21:20:53.841Z,13.72
2017-08-22T21:23:23.378Z,13.69
2017-08-22T21:25:53.062Z,13.51
2017-08-22T21:28:22.648Z,13.54
2017-08-22T21:30:52.087Z,13.64
2017-08-22T21:33:27.421Z,13.70
2017-08-22T21:35:56.832Z,13.56
2017-08-22T21:38:26.414Z,13.52
2017-08-22T21:40:56.730Z,13.49
2017-08-22T21:43:26.728Z,13.50
2017-08-22T21:45:57.067Z,13.46
2017-08-22T21:48:26.531Z,13.40
2017-08-22T21:50:56.267Z,13.36
2017-08-22T21:53:25.781Z,13.29
2017-08-22T21:55:56.924Z,13.29
2017-08-22T21:58:27.478Z,13.29
2017-08-22T22:00:59.954Z,13.39
2017-08-22T22:03:29.461Z,13.32
2017-08-22T22:05:59.642Z,13.17
2017-08-22T22:08:29.892Z,13.17
2017-08-22T22:10:59.316Z,13.11
2017-08-22T22:13:29.775Z,13.08
2017-08-22T22:15:59.458Z,13.11
2017-08-22T22:18:29.339Z,13.03
2017-08-22T22:20:58.899Z,13.05
2017-08-22T22:23:28.238Z,13.06
2017-08-22T22:25:57.745Z,12.95
2017-08-22T22:28:27.123Z,12.96
2017-08-22T22:30:56.650Z,12.99
2017-08-22T22:33:25.988Z,12.93
2017-08-22T22:35:56.200Z,12.87
2017-08-22T22:38:25.817Z,12.87
2017-08-22T22:40:55.514Z,12.88
2017-08-22T22:43:25.641Z,12.86
2017-08-22T22:45:56.764Z,12.86
2017-08-22T22:48:29.472Z,12.91
2017-08-22T22:51:00.185Z,12.83
2017-08-22T22:53:30.283Z,12.70
2017-08-22T22:55:59.625Z,12.48
2017-08-22T22:58:32.436Z,12.57
2017-08-22T23:01:05.076Z,12.56
2017-08-22T23:03:34.593Z,12.58
2017-08-22T23:06:04.005Z,12.53
2017-08-22T23:08:34.226Z,12.53
2017-08-22T23:11:03.720Z,12.59
2017-08-22T23:13:36.656Z,12.53
2017-08-22T23:16:06.639Z,12.42
2017-08-22T23:18:35.945Z,12.34
2017-08-22T23:21:05.291Z,12.37
2017-08-22T23:23:34.620Z,12.41
2017-08-22T23:26:03.981Z,12.33
2017-08-22T23:28:33.304Z,12.29
2017-08-22T23:31:02.671Z,12.24
2017-08-22T23:33:32.720Z,12.23
2017-08-22T23:36:02.292Z,12.26
2017-08-22T23:38:31.995Z,12.22
2017-08-22T23:41:02.389Z,12.06
2017-08-22T23:43:36.156Z,12.17
2017-08-22T23:46:08.314Z,12.26
2017-08-22T23:49:40.613Z,12.10
2017-08-22T23:52:10.455Z,12.03
2017-08-22T23:54:45.337Z,12.03
2017-08-22T23:57:15.514Z,12.13
2017-08-22T23:59:45.178Z,12.08
